createdAt,value
2017-01-31T00:00:08.359Z,928.5
2017-01-31T00:00:28.739Z,928.56
2017-01-31T00:00:48.484Z,928.48
2017-01-31T00:01:08.900Z,928.53
2017-01-31T00:01:29.295Z,928.54
2017-01-31T00:01:49.734Z,928.55
2017-01-31T00:02:10.099Z,928.56
2017-01-31T00:02:30.536Z,928.63
2017-01-31T00:02:50.925Z,928.59
2017-01-31T00:03:11.373Z,928.55
2017-01-31T00:03:31.763Z,928.6
2017-01-31T00:03:52.152Z,928.65
2017-01-31T00:04:11.946Z,928.6
2017-01-31T00:04:32.379Z,928.63
2017-01-31T00:04:52.742Z,928.59
2017-01-31T00:05:13.103Z,928.64
2017-01-31T00:05:33.468Z,928.63
2017-01-31T00:05:53.890Z,928.68
2017-01-31T00:06:13.648Z,928.71
2017-01-31T00:06:34.033Z,928.65
2017-01-31T00:06:54.439Z,928.67
2017-01-31T00:07:14.211Z,928.68
2017-01-31T00:07:34.633Z,928.7
2017-01-31T00:07:55.044Z,928.66
2017-01-31T00:08:14.850Z,928.71
2017-01-31T00:08:35.281Z,928.68
2017-01-31T00:08:55.687Z,928.7
2017-01-31T00:16:55.260Z,928.66
2017-01-31T00:17:15.014Z,928.65
2017-01-31T00:17:35.436Z,928.66
2017-01-31T00:17:55.840Z,928.67
2017-01-31T00:18:16.296Z,928.66
2017-01-31T00:18:36.722Z,928.64
2017-01-31T00:18:57.108Z,928.69
2017-01-31T00:19:17.479Z,928.64
2017-01-31T00:19:37.870Z,928.65
2017-01-31T00:19:58.284Z,928.67
2017-01-31T00:20:18.089Z,928.67
2017-01-31T00:20:38.459Z,928.65
2017-01-31T00:20:58.840Z,928.67
2017-01-31T00:21:19.263Z,928.67
2017-01-31T00:21:39.692Z,928.71
2017-01-31T00:22:00.100Z,928.71
2017-01-31T00:22:19.195Z,928.69
2017-01-31T00:22:39.586Z,928.66
2017-01-31T00:23:00.031Z,928.71
2017-01-31T00:23:19.779Z,928.69
2017-01-31T00:23:40.293Z,928.7
2017-01-31T00:24:00.741Z,928.67
2017-01-31T00:24:19.238Z,928.7
2017-01-31T00:24:39.688Z,928.69
2017-01-31T00:25:00.078Z,928.71
2017-01-31T00:25:19.881Z,928.72
2017-01-31T00:25:40.275Z,928.69
2017-01-31T00:26:00.712Z,928.69
2017-01-31T00:26:19.897Z,928.72
2017-01-31T00:26:40.383Z,928.69
2017-01-31T00:27:00.798Z,928.68
2017-01-31T00:27:20.614Z,928.71
2017-01-31T00:27:41.106Z,928.74
2017-01-31T00:28:01.533Z,928.7
2017-01-31T00:28:20.667Z,928.76
2017-01-31T00:28:41.068Z,928.77
2017-01-31T00:29:01.505Z,928.77
2017-01-31T00:29:20.675Z,928.78
2017-01-31T00:29:41.070Z,928.78
2017-01-31T00:30:01.516Z,928.79
2017-01-31T00:30:21.549Z,928.8
2017-01-31T00:30:41.936Z,928.73
2017-01-31T00:31:02.352Z,928.76
2017-01-31T00:31:22.795Z,928.76
2017-01-31T00:31:43.274Z,928.8
2017-01-31T00:32:03.687Z,928.77
2017-01-31T00:32:24.092Z,928.75
2017-01-31T00:32:44.502Z,928.74
2017-01-31T00:33:04.937Z,928.74
2017-01-31T00:33:24.754Z,928.74
2017-01-31T00:33:45.162Z,928.79
2017-01-31T00:34:05.601Z,928.75
2017-01-31T00:34:26.038Z,928.73
2017-01-31T00:34:46.443Z,928.76
2017-01-31T00:35:06.841Z,928.74
2017-01-31T00:35:27.280Z,928.74
2017-01-31T00:35:47.715Z,928.73
2017-01-31T00:36:08.284Z,928.78
2017-01-31T00:36:28.025Z,928.77
2017-01-31T00:36:48.507Z,928.8
2017-01-31T00:37:08.925Z,928.8
2017-01-31T00:37:29.341Z,928.82
2017-01-31T00:37:49.710Z,928.82
2017-01-31T00:38:10.104Z,928.8
2017-01-31T00:38:30.479Z,928.82
2017-01-31T00:38:50.909Z,928.84
2017-01-31T00:39:11.336Z,928.8
2017-01-31T00:39:31.750Z,928.8
2017-01-31T00:39:51.478Z,928.81
2017-01-31T00:40:11.933Z,928.82
2017-01-31T00:40:31.750Z,928.8
2017-01-31T00:40:52.027Z,928.82
2017-01-31T00:41:11.785Z,928.84
2017-01-31T00:41:32.205Z,928.82
2017-01-31T00:41:52.566Z,928.81
2017-01-31T00:42:12.330Z,928.73
2017-01-31T00:42:32.082Z,928.8
2017-01-31T00:42:51.833Z,928.8
2017-01-31T00:43:11.604Z,928.82
2017-01-31T00:43:31.980Z,928.86
2017-01-31T00:43:52.424Z,928.82
2017-01-31T00:44:12.226Z,928.84
2017-01-31T00:44:32.620Z,928.79
2017-01-31T00:44:53.032Z,928.8
2017-01-31T00:45:12.812Z,928.84
2017-01-31T00:45:32.598Z,928.82
2017-01-31T00:45:53.026Z,928.8
2017-01-31T00:46:13.386Z,928.83
2017-01-31T00:46:33.806Z,928.84
2017-01-31T00:46:54.206Z,928.85
2017-01-31T00:47:14.626Z,928.83
2017-01-31T00:47:34.994Z,928.85
2017-01-31T00:47:55.360Z,928.87
2017-01-31T00:48:15.774Z,928.9
2017-01-31T00:48:36.128Z,928.86
2017-01-31T00:48:55.892Z,928.87
2017-01-31T00:49:16.302Z,928.87
2017-01-31T00:49:36.702Z,928.89
2017-01-31T00:49:57.096Z,928.84
2017-01-31T00:50:16.884Z,928.88
2017-01-31T00:50:37.292Z,928.89
2017-01-31T00:50:57.745Z,928.87
2017-01-31T00:51:18.135Z,928.88
2017-01-31T00:51:38.541Z,928.87
2017-01-31T00:51:58.953Z,928.87
2017-01-31T00:52:18.756Z,928.84
2017-01-31T00:52:39.190Z,928.86
2017-01-31T00:52:59.628Z,928.89
2017-01-31T00:53:20.025Z,928.85
2017-01-31T00:53:40.452Z,928.85
2017-01-31T00:54:00.301Z,928.88
2017-01-31T00:54:20.714Z,928.86
2017-01-31T00:54:41.116Z,928.87
2017-01-31T00:55:00.851Z,928.91
2017-01-31T00:55:21.317Z,928.89
2017-01-31T00:55:41.693Z,928.88
2017-01-31T00:56:01.483Z,928.87
2017-01-31T00:56:21.921Z,928.86
2017-01-31T00:56:42.333Z,928.86
2017-01-31T00:57:02.720Z,928.87
2017-01-31T00:57:22.496Z,928.89
2017-01-31T00:57:42.955Z,928.86
2017-01-31T00:58:03.369Z,928.88
2017-01-31T00:58:23.731Z,928.85
2017-01-31T00:58:44.179Z,928.84
2017-01-31T00:59:04.599Z,928.88
2017-01-31T00:59:24.998Z,928.85
2017-01-31T00:59:45.419Z,928.83
2017-01-31T01:00:05.852Z,928.86
2017-01-31T01:00:25.621Z,928.82
2017-01-31T01:00:46.038Z,928.86
2017-01-31T01:01:06.430Z,928.84
2017-01-31T01:01:26.856Z,928.8
2017-01-31T01:01:47.308Z,928.81
2017-01-31T01:02:07.692Z,928.83
2017-01-31T01:02:27.442Z,928.84
2017-01-31T01:02:47.784Z,928.85
2017-01-31T01:03:08.141Z,928.82
2017-01-31T01:03:27.879Z,928.84
2017-01-31T01:03:48.334Z,928.84
2017-01-31T01:04:08.761Z,928.89
2017-01-31T01:04:28.506Z,928.86
2017-01-31T01:04:48.260Z,928.84
2017-01-31T01:05:08.671Z,928.83
2017-01-31T01:05:29.066Z,928.85
2017-01-31T01:05:49.494Z,928.86
2017-01-31T01:06:09.925Z,928.87
2017-01-31T01:06:30.322Z,928.85
2017-01-31T01:06:50.725Z,928.86
2017-01-31T01:07:11.154Z,928.88
2017-01-31T01:07:31.552Z,928.89
2017-01-31T01:07:51.923Z,928.86
2017-01-31T01:08:12.313Z,928.85
2017-01-31T01:08:32.092Z,928.89
2017-01-31T01:08:52.462Z,928.86
2017-01-31T01:09:12.835Z,928.85
2017-01-31T01:09:33.275Z,928.83
2017-01-31T01:09:53.708Z,928.84
2017-01-31T01:10:13.462Z,928.86
2017-01-31T01:10:33.859Z,928.87
2017-01-31T01:10:54.253Z,928.87
2017-01-31T01:11:13.993Z,928.86
2017-01-31T01:11:34.348Z,928.89
2017-01-31T01:11:54.756Z,928.89
2017-01-31T01:12:14.531Z,928.86
2017-01-31T01:12:34.914Z,928.86
2017-01-31T01:12:54.680Z,928.86
2017-01-31T01:13:14.436Z,928.9
2017-01-31T01:13:34.222Z,928.87
2017-01-31T01:13:54.609Z,928.89
2017-01-31T01:14:15.024Z,928.85
2017-01-31T01:14:34.786Z,928.84
2017-01-31T01:14:55.220Z,928.88
2017-01-31T01:15:15.649Z,928.84
2017-01-31T01:15:36.019Z,928.86
2017-01-31T01:15:56.439Z,928.85
2017-01-31T01:16:16.888Z,928.82
2017-01-31T01:16:37.270Z,928.85
2017-01-31T01:16:57.671Z,928.83
2017-01-31T01:17:17.485Z,928.84
2017-01-31T01:17:37.861Z,928.84
2017-01-31T01:17:58.277Z,928.81
2017-01-31T01:18:18.038Z,928.86
2017-01-31T01:18:38.420Z,928.88
2017-01-31T01:18:58.889Z,928.81
2017-01-31T01:19:18.643Z,928.83
2017-01-31T01:19:39.106Z,928.82
2017-01-31T01:19:59.519Z,928.83
2017-01-31T01:20:18.690Z,928.81
2017-01-31T01:20:39.063Z,928.82
2017-01-31T01:20:59.471Z,928.85
2017-01-31T01:21:19.894Z,928.81
2017-01-31T01:21:40.304Z,928.83
2017-01-31T01:22:00.720Z,928.85
2017-01-31T01:22:20.479Z,928.8
2017-01-31T01:22:40.854Z,928.78
2017-01-31T01:23:00.643Z,928.75
2017-01-31T01:23:21.054Z,928.77
2017-01-31T01:23:41.478Z,928.79
2017-01-31T01:24:01.877Z,928.75
2017-01-31T01:24:22.325Z,928.74
2017-01-31T01:24:42.732Z,928.79
2017-01-31T01:25:03.145Z,928.76
2017-01-31T01:25:21.607Z,928.75
2017-01-31T01:25:42.028Z,928.76
2017-01-31T01:26:02.447Z,928.74
2017-01-31T01:26:22.829Z,928.75
2017-01-31T01:26:43.215Z,928.75
2017-01-31T01:27:03.622Z,928.71
2017-01-31T01:27:24.038Z,928.72
2017-01-31T01:27:44.453Z,928.75
2017-01-31T01:28:04.843Z,928.75
2017-01-31T01:28:24.221Z,928.7
2017-01-31T01:28:44.949Z,928.72
2017-01-31T01:29:05.345Z,928.72
2017-01-31T01:29:25.753Z,928.75
2017-01-31T01:29:46.156Z,928.7
2017-01-31T01:30:06.562Z,928.67
2017-01-31T01:30:26.338Z,928.7
2017-01-31T01:30:46.720Z,928.71
2017-01-31T01:31:07.118Z,928.76
2017-01-31T01:31:27.488Z,928.73
2017-01-31T01:31:47.896Z,928.72
2017-01-31T01:32:08.319Z,928.75
2017-01-31T01:32:28.728Z,928.73
2017-01-31T01:32:49.093Z,928.75
2017-01-31T01:33:09.528Z,928.7
2017-01-31T01:33:29.926Z,928.75
2017-01-31T01:33:49.678Z,928.77
2017-01-31T01:34:10.102Z,928.73
2017-01-31T01:34:30.536Z,928.71
2017-01-31T01:34:50.918Z,928.74
2017-01-31T01:35:11.327Z,928.73
2017-01-31T01:35:31.091Z,928.7
2017-01-31T01:35:51.519Z,928.71
2017-01-31T01:36:11.928Z,928.7
2017-01-31T01:36:32.395Z,928.74
2017-01-31T01:36:52.897Z,928.73
2017-01-31T01:37:13.359Z,928.75
2017-01-31T01:37:33.857Z,928.67
2017-01-31T01:37:54.261Z,928.7
2017-01-31T01:38:14.672Z,928.67
2017-01-31T01:38:35.104Z,928.7
2017-01-31T01:38:55.610Z,928.65
2017-01-31T01:39:16.035Z,928.69
2017-01-31T01:39:36.432Z,928.67
2017-01-31T01:39:56.808Z,928.66
2017-01-31T01:40:16.153Z,928.67
2017-01-31T01:40:36.547Z,928.65
2017-01-31T01:40:56.980Z,928.64
2017-01-31T01:41:16.736Z,928.68
2017-01-31T01:41:37.139Z,928.72
2017-01-31T01:41:57.598Z,928.7
2017-01-31T01:42:16.663Z,928.69
2017-01-31T01:42:37.057Z,928.69
2017-01-31T01:42:57.454Z,928.71
2017-01-31T01:43:17.232Z,928.68
2017-01-31T01:43:37.633Z,928.69
2017-01-31T01:43:58.032Z,928.63
2017-01-31T01:44:18.467Z,928.71
2017-01-31T01:44:38.867Z,928.69
2017-01-31T01:44:59.270Z,928.71
2017-01-31T01:45:19.865Z,928.74
2017-01-31T01:45:40.267Z,928.7
2017-01-31T01:46:00.690Z,928.72
2017-01-31T01:46:21.124Z,928.72
2017-01-31T01:46:41.543Z,928.76
2017-01-31T01:47:01.955Z,928.72
2017-01-31T01:47:22.346Z,928.71
2017-01-31T01:47:42.745Z,928.76
2017-01-31T01:48:03.201Z,928.76
2017-01-31T01:48:22.966Z,928.76
2017-01-31T01:48:43.370Z,928.76
2017-01-31T01:49:03.784Z,928.74
2017-01-31T01:49:23.558Z,928.7
2017-01-31T01:49:43.992Z,928.75
2017-01-31T01:50:04.367Z,928.74
2017-01-31T01:50:24.723Z,928.71
2017-01-31T01:50:45.118Z,928.73
2017-01-31T01:51:05.528Z,928.69
2017-01-31T01:51:24.708Z,928.7
2017-01-31T01:51:45.090Z,928.69
2017-01-31T01:52:05.487Z,928.73
2017-01-31T01:52:23.948Z,928.71
2017-01-31T01:52:44.365Z,928.75
2017-01-31T01:53:04.809Z,928.73
2017-01-31T01:53:25.248Z,928.74
2017-01-31T01:53:45.692Z,928.75
2017-01-31T01:54:06.114Z,928.75
2017-01-31T01:54:25.872Z,928.73
2017-01-31T01:54:46.287Z,928.72
2017-01-31T01:55:06.686Z,928.72
2017-01-31T01:55:27.107Z,928.73
2017-01-31T01:55:47.460Z,928.73
2017-01-31T01:56:07.851Z,928.7
2017-01-31T01:56:26.958Z,928.74
2017-01-31T01:56:47.363Z,928.7
2017-01-31T01:57:07.751Z,928.73
2017-01-31T01:57:28.121Z,928.72
2017-01-31T01:57:48.516Z,928.73
2017-01-31T01:58:08.943Z,928.74
2017-01-31T01:58:29.338Z,928.73
2017-01-31T01:58:49.740Z,928.75
2017-01-31T01:59:10.137Z,928.74
2017-01-31T01:59:30.528Z,928.74
2017-01-31T01:59:50.922Z,928.75
2017-01-31T02:00:11.347Z,928.76
2017-01-31T02:00:31.137Z,928.7
2017-01-31T02:00:51.559Z,928.74
2017-01-31T02:01:11.991Z,928.73
2017-01-31T02:01:32.370Z,928.72
2017-01-31T02:01:52.767Z,928.72
2017-01-31T02:02:12.548Z,928.72
2017-01-31T02:02:32.981Z,928.75
2017-01-31T02:02:53.372Z,928.74
2017-01-31T02:03:13.768Z,928.74
2017-01-31T02:03:34.142Z,928.76
2017-01-31T02:03:54.546Z,928.71
2017-01-31T02:04:14.960Z,928.75
2017-01-31T02:04:35.378Z,928.77
2017-01-31T02:04:55.750Z,928.76
2017-01-31T02:05:16.366Z,928.79
2017-01-31T02:05:36.795Z,928.77
2017-01-31T02:05:57.215Z,928.81
2017-01-31T02:06:16.982Z,928.79
2017-01-31T02:06:37.414Z,928.77
2017-01-31T02:06:57.850Z,928.82
2017-01-31T02:07:17.597Z,928.84
2017-01-31T02:07:37.991Z,928.83
2017-01-31T02:07:58.412Z,928.84
2017-01-31T02:08:18.208Z,928.85
2017-01-31T02:08:38.603Z,928.85
2017-01-31T02:08:59.030Z,928.86
2017-01-31T02:09:17.491Z,928.84
2017-01-31T02:09:37.891Z,928.88
2017-01-31T02:09:58.313Z,928.84
2017-01-31T02:10:18.075Z,928.84
2017-01-31T02:10:37.883Z,928.86
2017-01-31T02:10:58.303Z,928.83
2017-01-31T02:11:18.032Z,928.85
2017-01-31T02:11:38.425Z,928.81
2017-01-31T02:11:58.852Z,928.83
2017-01-31T02:12:18.042Z,928.82
2017-01-31T02:12:38.500Z,928.83
2017-01-31T02:12:58.947Z,928.81
2017-01-31T02:13:18.731Z,928.8
2017-01-31T02:13:39.157Z,928.79
2017-01-31T02:13:59.582Z,928.8
2017-01-31T02:14:20.023Z,928.8
2017-01-31T02:14:40.436Z,928.78
2017-01-31T02:15:00.864Z,928.76
2017-01-31T02:15:21.342Z,928.8
2017-01-31T02:15:41.803Z,928.77
2017-01-31T02:16:02.213Z,928.77
2017-01-31T02:16:21.973Z,928.79
2017-01-31T02:16:42.372Z,928.78
2017-01-31T02:17:02.786Z,928.8
2017-01-31T02:17:22.570Z,928.76
2017-01-31T02:17:43.038Z,928.74
2017-01-31T02:18:03.503Z,928.79
2017-01-31T02:18:23.953Z,928.81
2017-01-31T02:18:44.345Z,928.8
2017-01-31T02:19:04.761Z,928.79
2017-01-31T02:19:25.195Z,928.8
2017-01-31T02:19:45.669Z,928.78
2017-01-31T02:20:06.092Z,928.78
2017-01-31T02:20:26.510Z,928.81
2017-01-31T02:20:46.949Z,928.77
2017-01-31T02:21:07.367Z,928.76
2017-01-31T02:21:27.811Z,928.78
2017-01-31T02:21:48.264Z,928.78
2017-01-31T02:22:08.644Z,928.77
2017-01-31T02:22:27.726Z,928.78
2017-01-31T02:22:48.191Z,928.77
2017-01-31T02:23:08.575Z,928.78
2017-01-31T02:23:28.970Z,928.75
2017-01-31T02:23:49.355Z,928.74
2017-01-31T02:24:09.796Z,928.73
2017-01-31T02:24:30.206Z,928.74
2017-01-31T02:24:50.634Z,928.76
2017-01-31T02:25:10.398Z,928.79
2017-01-31T02:25:30.162Z,928.75
2017-01-31T02:25:49.909Z,928.77
2017-01-31T02:26:10.319Z,928.77
2017-01-31T02:26:30.090Z,928.77
2017-01-31T02:26:50.487Z,928.74
2017-01-31T02:27:10.901Z,928.77
2017-01-31T02:27:31.318Z,928.75
2017-01-31T02:27:51.788Z,928.79
2017-01-31T02:28:12.211Z,928.77
2017-01-31T02:28:32.592Z,928.77
2017-01-31T02:28:53.005Z,928.74
2017-01-31T02:29:13.385Z,928.74
2017-01-31T02:29:33.811Z,928.76
2017-01-31T02:29:54.206Z,928.75
2017-01-31T02:30:13.966Z,928.73
2017-01-31T02:30:34.372Z,928.77
2017-01-31T02:30:54.813Z,928.77
2017-01-31T02:31:14.615Z,928.74
2017-01-31T02:31:35.052Z,928.77
2017-01-31T02:31:55.473Z,928.77
2017-01-31T02:32:15.837Z,928.69
2017-01-31T02:32:36.198Z,928.71
2017-01-31T02:32:56.608Z,928.73
2017-01-31T02:33:17.024Z,928.74
2017-01-31T02:33:37.417Z,928.77
2017-01-31T02:33:57.869Z,928.78
2017-01-31T02:34:18.298Z,928.74
2017-01-31T02:34:38.719Z,928.76
2017-01-31T02:34:58.508Z,928.76
2017-01-31T02:35:18.264Z,928.76
2017-01-31T02:35:38.652Z,928.8
2017-01-31T02:35:58.667Z,928.78
2017-01-31T02:36:19.079Z,928.77
2017-01-31T02:36:39.469Z,928.8
2017-01-31T02:36:59.234Z,928.8
2017-01-31T02:37:19.620Z,928.77
2017-01-31T02:37:39.997Z,928.73
2017-01-31T02:38:00.441Z,928.77
2017-01-31T02:38:20.260Z,928.79
2017-01-31T02:38:40.688Z,928.82
2017-01-31T02:39:01.147Z,928.74
2017-01-31T02:39:21.561Z,928.77
2017-01-31T02:39:42.031Z,928.78
2017-01-31T02:40:02.444Z,928.73
2017-01-31T02:40:22.821Z,928.75
2017-01-31T02:40:43.210Z,928.76
2017-01-31T02:41:03.651Z,928.75
2017-01-31T02:41:23.465Z,928.75
2017-01-31T02:41:43.880Z,928.76
2017-01-31T02:42:04.275Z,928.79
2017-01-31T02:42:25.195Z,928.8
2017-01-31T02:42:45.556Z,928.82
2017-01-31T02:43:05.931Z,928.78
2017-01-31T02:43:26.305Z,928.82
2017-01-31T02:43:46.725Z,928.84
2017-01-31T02:44:07.216Z,928.83
2017-01-31T02:44:27.031Z,928.8
2017-01-31T02:44:47.413Z,928.81
2017-01-31T02:45:07.240Z,928.84
2017-01-31T02:45:28.667Z,928.82
2017-01-31T02:45:49.084Z,928.83
2017-01-31T02:46:09.457Z,928.85
2017-01-31T02:46:29.847Z,928.82
2017-01-31T02:46:50.342Z,928.84
2017-01-31T02:47:10.782Z,928.83
2017-01-31T02:47:31.169Z,928.83
2017-01-31T02:47:51.572Z,928.81
2017-01-31T02:48:11.319Z,928.86
2017-01-31T02:48:31.729Z,928.85
2017-01-31T02:48:52.123Z,928.84
2017-01-31T02:49:12.513Z,928.85
2017-01-31T02:49:32.937Z,928.86
2017-01-31T02:49:53.384Z,928.84
2017-01-31T02:50:13.358Z,928.83
2017-01-31T02:50:33.757Z,928.85
2017-01-31T02:50:54.155Z,928.84
2017-01-31T02:51:14.552Z,928.87
2017-01-31T02:51:34.949Z,928.89
2017-01-31T02:51:55.369Z,928.85
2017-01-31T02:52:15.796Z,928.85
2017-01-31T02:52:36.246Z,928.86
2017-01-31T02:52:56.651Z,928.88
2017-01-31T02:53:17.065Z,928.84
2017-01-31T02:53:37.465Z,928.84
2017-01-31T02:53:57.859Z,928.83
2017-01-31T02:54:16.977Z,928.82
2017-01-31T02:54:37.345Z,928.83
2017-01-31T02:54:57.746Z,928.79
2017-01-31T02:55:18.159Z,928.81
2017-01-31T02:55:38.557Z,928.81
2017-01-31T02:55:58.924Z,928.8
2017-01-31T02:56:18.671Z,928.75
2017-01-31T02:56:39.078Z,928.76
2017-01-31T02:56:59.506Z,928.78
2017-01-31T02:57:19.941Z,928.75
2017-01-31T02:57:40.372Z,928.77
2017-01-31T02:58:00.776Z,928.73
2017-01-31T02:58:21.196Z,928.74
2017-01-31T02:58:41.609Z,928.71
2017-01-31T02:59:02.037Z,928.71
2017-01-31T02:59:22.416Z,928.72
2017-01-31T02:59:42.848Z,928.68
2017-01-31T03:00:37.402Z,928.7
2017-01-31T03:00:57.788Z,928.67
2017-01-31T03:01:18.203Z,928.7
2017-01-31T03:01:38.911Z,928.7
2017-01-31T03:01:59.336Z,928.68
2017-01-31T03:02:19.077Z,928.74
2017-01-31T03:02:39.472Z,928.69
2017-01-31T03:02:59.911Z,928.7
2017-01-31T03:03:20.272Z,928.68
2017-01-31T03:03:40.682Z,928.75
2017-01-31T03:04:01.112Z,928.7
2017-01-31T03:04:20.875Z,928.73
2017-01-31T03:04:41.269Z,928.74
2017-01-31T03:05:01.683Z,928.71
2017-01-31T03:05:21.442Z,928.74
2017-01-31T03:05:41.876Z,928.74
2017-01-31T03:06:02.253Z,928.75
2017-01-31T03:06:22.043Z,928.75
2017-01-31T03:06:42.466Z,928.76
2017-01-31T03:07:02.857Z,928.78
2017-01-31T03:07:22.591Z,928.76
2017-01-31T03:07:42.995Z,928.77
2017-01-31T03:08:03.430Z,928.77
2017-01-31T03:08:23.817Z,928.71
2017-01-31T03:08:44.219Z,928.74
2017-01-31T03:09:04.624Z,928.72
2017-01-31T03:09:25.019Z,928.7
2017-01-31T03:09:45.424Z,928.7
2017-01-31T03:10:05.832Z,928.69
2017-01-31T03:10:25.632Z,928.7
2017-01-31T03:10:46.043Z,928.68
2017-01-31T03:11:06.439Z,928.68
2017-01-31T03:11:26.858Z,928.67
2017-01-31T03:11:47.262Z,928.68
2017-01-31T03:12:07.677Z,928.7
2017-01-31T03:12:28.068Z,928.71
2017-01-31T03:12:47.828Z,928.71
2017-01-31T03:13:08.204Z,928.67
2017-01-31T03:13:28.618Z,928.68
2017-01-31T03:13:49.000Z,928.69
2017-01-31T03:14:09.429Z,928.68
2017-01-31T03:14:29.816Z,928.69
2017-01-31T03:14:50.238Z,928.69
2017-01-31T03:15:10.620Z,928.7
2017-01-31T03:15:29.722Z,928.67
2017-01-31T03:15:50.126Z,928.68
2017-01-31T03:16:10.536Z,928.67
2017-01-31T03:16:30.917Z,928.68
2017-01-31T03:16:51.328Z,928.68
2017-01-31T03:17:11.746Z,928.7
2017-01-31T03:17:32.151Z,928.69
2017-01-31T03:17:52.562Z,928.67
2017-01-31T03:18:12.315Z,928.67
2017-01-31T03:18:32.752Z,928.65
2017-01-31T03:18:53.146Z,928.64
2017-01-31T03:19:13.549Z,928.64
2017-01-31T03:19:33.932Z,928.63
2017-01-31T03:19:54.299Z,928.63
2017-01-31T03:20:14.687Z,928.64
2017-01-31T03:20:34.441Z,928.64
2017-01-31T03:20:54.858Z,928.63
2017-01-31T03:21:15.304Z,928.64
2017-01-31T03:21:35.689Z,928.65
2017-01-31T03:21:56.120Z,928.62
2017-01-31T03:22:16.530Z,928.61
2017-01-31T03:22:36.962Z,928.62
2017-01-31T03:22:57.387Z,928.6
2017-01-31T03:23:17.164Z,928.59
2017-01-31T03:23:37.562Z,928.59
2017-01-31T03:23:57.974Z,928.61
2017-01-31T03:24:17.139Z,928.59
2017-01-31T03:24:37.559Z,928.57
2017-01-31T03:24:57.979Z,928.59
2017-01-31T03:25:17.747Z,928.56
2017-01-31T03:25:38.158Z,928.56
2017-01-31T03:25:58.670Z,928.56
2017-01-31T03:26:19.102Z,928.57
2017-01-31T03:26:39.479Z,928.55
2017-01-31T03:26:59.232Z,928.56
2017-01-31T03:27:19.635Z,928.55
2017-01-31T03:27:40.008Z,928.5
2017-01-31T03:28:00.423Z,928.53
2017-01-31T03:28:20.166Z,928.51
2017-01-31T03:28:40.573Z,928.47
2017-01-31T03:29:00.965Z,928.51
2017-01-31T03:29:20.736Z,928.51
2017-01-31T03:29:41.152Z,928.51
2017-01-31T03:30:01.569Z,928.47
2017-01-31T03:30:21.336Z,928.5
2017-01-31T03:30:41.756Z,928.46
2017-01-31T03:31:02.181Z,928.48
2017-01-31T03:31:21.962Z,928.48
2017-01-31T03:31:42.375Z,928.5
2017-01-31T03:32:02.793Z,928.49
2017-01-31T03:32:21.900Z,928.46
2017-01-31T03:32:42.312Z,928.44
2017-01-31T03:33:02.124Z,928.45
2017-01-31T03:33:22.558Z,928.43
2017-01-31T03:33:42.960Z,928.43
2017-01-31T03:34:05.671Z,928.46
2017-01-31T03:34:26.944Z,928.44
2017-01-31T03:34:47.347Z,928.45
2017-01-31T03:35:07.737Z,928.44
2017-01-31T03:35:28.139Z,928.39
2017-01-31T03:35:47.893Z,928.41
2017-01-31T03:36:08.334Z,928.42
2017-01-31T03:36:28.104Z,928.44
2017-01-31T03:36:48.503Z,928.43
2017-01-31T03:37:08.917Z,928.4
2017-01-31T03:37:28.034Z,928.4
2017-01-31T03:37:47.770Z,928.4
2017-01-31T03:38:08.158Z,928.4
2017-01-31T03:38:28.561Z,928.39
2017-01-31T03:38:48.958Z,928.36
2017-01-31T03:39:09.425Z,928.34
2017-01-31T03:39:29.194Z,928.36
2017-01-31T03:39:49.581Z,928.39
2017-01-31T03:40:09.984Z,928.36
2017-01-31T03:40:30.380Z,928.38
2017-01-31T03:40:50.791Z,928.38
2017-01-31T03:41:11.191Z,928.37
2017-01-31T03:41:31.596Z,928.38
2017-01-31T03:41:51.968Z,928.36
2017-01-31T03:42:11.706Z,928.36
2017-01-31T03:42:31.480Z,928.36
2017-01-31T03:42:51.865Z,928.33
2017-01-31T03:43:12.282Z,928.35
2017-01-31T03:43:32.731Z,928.31
2017-01-31T03:43:53.138Z,928.36
2017-01-31T03:44:12.264Z,928.35
2017-01-31T03:44:32.650Z,928.39
2017-01-31T03:44:53.032Z,928.36
2017-01-31T03:45:12.838Z,928.33
2017-01-31T03:45:33.266Z,928.34
2017-01-31T03:45:53.664Z,928.3
2017-01-31T03:46:13.445Z,928.32
2017-01-31T03:46:33.913Z,928.28
2017-01-31T03:46:54.337Z,928.28
2017-01-31T03:47:14.704Z,928.3
2017-01-31T03:47:35.133Z,928.31
2017-01-31T03:47:54.883Z,928.29
2017-01-31T03:48:14.648Z,928.28
2017-01-31T03:48:35.006Z,928.26
2017-01-31T03:48:54.731Z,928.28
2017-01-31T03:49:15.166Z,928.3
2017-01-31T03:49:35.589Z,928.3
2017-01-31T03:49:55.988Z,928.27
2017-01-31T03:50:16.400Z,928.29
2017-01-31T03:50:36.798Z,928.26
2017-01-31T03:50:57.223Z,928.25
2017-01-31T03:51:17.601Z,928.25
2017-01-31T03:51:38.047Z,928.26
2017-01-31T03:51:58.508Z,928.28
2017-01-31T03:52:18.896Z,928.28
2017-01-31T03:52:39.363Z,928.24
2017-01-31T03:52:59.748Z,928.18
2017-01-31T03:53:20.149Z,928.21
2017-01-31T03:53:40.545Z,928.22
2017-01-31T03:54:00.937Z,928.21
2017-01-31T03:54:20.056Z,928.24
2017-01-31T03:54:40.431Z,928.23
2017-01-31T03:55:00.860Z,928.21
2017-01-31T03:55:20.655Z,928.21
2017-01-31T03:55:41.248Z,928.21
2017-01-31T03:56:01.037Z,928.24
2017-01-31T03:56:21.428Z,928.23
2017-01-31T03:56:41.837Z,928.21
2017-01-31T03:57:02.196Z,928.18
2017-01-31T03:57:21.915Z,928.17
2017-01-31T03:57:42.299Z,928.18
2017-01-31T03:58:02.682Z,928.18
2017-01-31T03:58:23.099Z,928.14
2017-01-31T03:58:43.496Z,928.09
2017-01-31T03:59:03.886Z,928.11
2017-01-31T03:59:24.293Z,928.1
2017-01-31T03:59:44.680Z,928.08
2017-01-31T04:00:05.080Z,928.06
2017-01-31T04:00:24.834Z,928.06
2017-01-31T04:00:45.209Z,928.05
2017-01-31T04:01:05.619Z,928.03
2017-01-31T04:01:26.020Z,928.05
2017-01-31T04:01:46.433Z,928.02
2017-01-31T04:02:06.824Z,928.02
2017-01-31T04:02:27.227Z,928.07
2017-01-31T04:02:47.605Z,928.02
2017-01-31T04:03:08.066Z,927.97
2017-01-31T04:03:28.459Z,927.96
2017-01-31T04:03:48.886Z,927.95
2017-01-31T04:04:09.325Z,927.96
2017-01-31T04:04:29.713Z,927.97
2017-01-31T04:04:50.100Z,928
2017-01-31T04:05:10.734Z,927.94
2017-01-31T04:05:31.146Z,927.97
2017-01-31T04:05:51.568Z,927.96
2017-01-31T04:06:11.347Z,927.95
2017-01-31T04:06:31.770Z,927.95
2017-01-31T04:06:52.226Z,927.96
2017-01-31T04:07:12.608Z,927.99
2017-01-31T04:07:32.969Z,927.97
2017-01-31T04:07:53.358Z,927.97
2017-01-31T04:08:13.804Z,927.97
2017-01-31T04:08:33.557Z,927.94
2017-01-31T04:08:53.936Z,927.97
2017-01-31T04:09:14.363Z,927.96
2017-01-31T04:09:34.739Z,927.94
2017-01-31T04:09:54.482Z,927.94
2017-01-31T04:10:14.892Z,927.96
2017-01-31T04:10:35.269Z,927.96
2017-01-31T04:10:55.704Z,927.94
2017-01-31T04:11:16.118Z,927.92
2017-01-31T04:11:36.496Z,927.94
2017-01-31T04:11:56.901Z,927.99
2017-01-31T04:12:17.337Z,927.93
2017-01-31T04:12:37.774Z,927.97
2017-01-31T04:12:57.555Z,927.99
2017-01-31T04:13:17.975Z,928
2017-01-31T04:13:38.407Z,928.01
2017-01-31T04:13:58.194Z,928.02
2017-01-31T04:14:17.954Z,928.05
2017-01-31T04:14:38.338Z,927.99
2017-01-31T04:14:58.725Z,928.01
2017-01-31T04:15:18.467Z,928.06
2017-01-31T04:15:38.841Z,928.07
2017-01-31T04:15:59.235Z,928.02
2017-01-31T04:16:18.992Z,928.07
2017-01-31T04:16:39.408Z,928.05
2017-01-31T04:16:59.800Z,928.08
2017-01-31T04:17:20.177Z,928.12
2017-01-31T04:17:40.542Z,928.11
2017-01-31T04:18:00.929Z,928.1
2017-01-31T04:18:20.708Z,928.12
2017-01-31T04:18:40.455Z,928.11
2017-01-31T04:19:00.806Z,928.1
2017-01-31T04:19:21.232Z,928.1
2017-01-31T04:19:41.618Z,928.09
2017-01-31T04:20:01.366Z,928.09
2017-01-31T04:20:21.776Z,928.13
2017-01-31T04:20:42.164Z,928.08
2017-01-31T04:21:02.601Z,928.08
2017-01-31T04:21:22.998Z,928.09
2017-01-31T04:21:43.409Z,928.03
2017-01-31T04:22:03.812Z,928.08